Murphy, Mississippi
Current Conditions -  °F | °C
As of 11:53 AM on Friday 28 Nov 2014 (Local Time) from KGLH Reporting Station
Clear Clear  
Wind Chill: 51°   Ceiling: Unl
Heat Index: 51°   Visibility: 10mi
Dew Point: 35°   Wind: 14mph
Humidity: 54%   Direction: 170°S
Pressure: 30.32"   Gusts: NA
Location:  33.1785°N, 90.8086°W
Report Text: KGLH 281753Z AUTO 17012KT 10SM CLR 11/02 A3032 RMK AO2 SLP278 T01060017 10106 20000 58028
Loading
Personal Weather Stations






























Interactive Weather Map New forecast layout! Learn more

10-Day Weather Forecast

Advertisements
Track Severe Weather on mobile